Time;durP1;ratioP1;P1;durP2;ratioP2;P2;SDS_P1;SDS_P2;PMS_P1;PMS_P2;Temp;Humidity;BMP_temperature;BMP_pressure;BME280_temperature;BME280_humidity;BME280_pressure;Samples;Min_cycle;Max_cycle;Signal;HPM_P1;HPM_P2
2022/08/01 00:02:10;;;;;;;4.10;3.75;;;;;;;;;;4975841;28;20450;-74
2022/08/01 00:04:35;;;;;;;3.70;3.40;;;;;;;;;;4977596;28;20093;-73
2022/08/01 00:07:01;;;;;;;4.20;2.83;;;;;;;;;;4979184;28;20026;-73
2022/08/01 00:09:26;;;;;;;4.45;3.92;;;;;;;;;;4978008;28;20022;-73
2022/08/01 00:11:51;;;;;;;3.95;3.65;;;;;;;;;;4976735;28;20426;-74
2022/08/01 00:14:17;;;;;;;4.80;4.38;;;;;;;;;;4975815;28;20030;-74
2022/08/01 00:16:42;;;;;;;4.90;3.60;;;;;;;;;;4978752;28;20041;-74
2022/08/01 00:19:07;;;;;;;4.13;3.72;;;;;;;;;;4977037;28;20026;-75
2022/08/01 00:21:33;;;;;;;3.35;2.95;;;;;;;;;;4974598;28;21281;-76
2022/08/01 00:23:59;;;;;;;3.22;2.92;;;;;;;;;;4976601;28;20062;-74
2022/08/01 00:26:24;;;;;;;3.22;2.90;;;;;;;;;;4975299;28;20128;-75
2022/08/01 00:28:49;;;;;;;4.22;3.55;;;;;;;;;;4974756;28;20037;-75
2022/08/01 00:31:15;;;;;;;5.30;4.07;;;;;;;;;;4977876;28;20029;-75
2022/08/01 00:33:40;;;;;;;8.35;5.43;;;;;;;;;;4976978;28;20033;-74
2022/08/01 00:36:05;;;;;;;7.70;5.95;;;;;;;;;;4976117;28;20125;-75
2022/08/01 00:38:31;;;;;;;4.57;3.88;;;;;;;;;;4976179;28;20037;-75
2022/08/01 00:40:57;;;;;;;6.90;4.10;;;;;;;;;;4973955;28;20431;-75
2022/08/01 00:43:22;;;;;;;5.13;3.97;;;;;;;;;;4974946;28;20030;-74
2022/08/01 00:45:47;;;;;;;6.43;3.90;;;;;;;;;;4976163;28;20018;-75
2022/08/01 00:48:13;;;;;;;5.70;3.97;;;;;;;;;;4979794;28;20437;-75
2022/08/01 00:50:38;;;;;;;5.07;3.92;;;;;;;;;;4979208;28;20088;-75
2022/08/01 00:53:03;;;;;;;8.05;3.83;;;;;;;;;;4980578;28;20104;-75
2022/08/01 00:55:30;;;;;;;3.85;3.53;;;;;;;;;;4977669;28;20066;-74
2022/08/01 00:57:56;;;;;;;4.07;3.70;;;;;;;;;;4979368;28;20022;-74
2022/08/01 01:00:22;;;;;;;6.68;4.90;;;;;;;;;;4981009;28;20037;-75
2022/08/01 01:02:47;;;;;;;4.78;4.28;;;;;;;;;;4981430;28;20041;-74
2022/08/01 01:05:12;;;;;;;4.25;3.85;;;;;;;;;;4973882;28;20041;-74
2022/08/01 01:07:44;;;;;;;5.13;4.00;;;;;;;;;;4975928;28;20030;-74
2022/08/01 01:10:16;;;;;;;4.90;3.88;;;;;;;;;;4978715;28;20019;-74
2022/08/01 01:12:51;;;;;;;6.10;4.18;;;;;;;;;;4980412;28;20026;-74
2022/08/01 01:15:36;;;;;;;5.28;4.03;;;;;;;;;;4977241;28;20077;-74
2022/08/01 01:18:10;;;;;;;4.82;3.95;;;;;;;;;;4978939;28;20045;-74
2022/08/01 01:20:46;;;;;;;4.90;4.50;;;;;;;;;;4978423;28;20026;-74
2022/08/01 01:23:14;;;;;;;4.00;3.60;;;;;;;;;;4977031;28;20035;-73
2022/08/01 01:25:45;;;;;;;3.20;3.00;;;;;;;;;;4978935;28;20030;-73
2022/08/01 01:28:21;;;;;;;2.95;2.75;;;;;;;;;;4979267;28;20022;-75
2022/08/01 01:30:48;;;;;;;3.15;2.88;;;;;;;;;;4979879;28;20026;-73
2022/08/01 01:33:14;;;;;;;4.13;2.95;;;;;;;;;;4979324;28;20023;-75
2022/08/01 01:35:46;;;;;;;3.65;3.35;;;;;;;;;;4981366;28;20034;-74
2022/08/01 01:38:15;;;;;;;8.40;3.15;;;;;;;;;;4981560;28;20037;-74
2022/08/01 01:40:41;;;;;;;;;;;;;;;;;;4978955;28;20061;-74
2022/08/01 01:43:09;;;;;;;5.20;3.77;;;;;;;;;;4979118;28;19913;-74
2022/08/01 01:45:35;;;;;;;4.28;3.92;;;;;;;;;;4981870;28;20041;-75
2022/08/01 01:48:01;;;;;;;5.15;3.38;;;;;;;;;;4975352;28;20028;-74
2022/08/01 01:50:28;;;;;;;3.95;2.97;;;;;;;;;;4978570;28;20022;-74
2022/08/01 01:52:54;;;;;;;4.22;3.80;;;;;;;;;;4979008;28;20434;-74
2022/08/01 01:55:21;;;;;;;4.22;3.10;;;;;;;;;;4976203;28;20074;-74
2022/08/01 01:57:47;;;;;;;4.75;3.17;;;;;;;;;;4979042;28;20058;-74
2022/08/01 02:00:13;;;;;;;3.70;3.40;;;;;;;;;;4976473;28;20026;-75
2022/08/01 02:02:39;;;;;;;4.82;3.20;;;;;;;;;;4978354;28;20030;-74
2022/08/01 02:05:06;;;;;;;3.22;2.80;;;;;;;;;;4980404;28;20098;-74
2022/08/01 02:07:32;;;;;;;4.15;3.17;;;;;;;;;;4978152;28;20095;-74
2022/08/01 02:09:59;;;;;;;2.88;2.58;;;;;;;;;;4978445;28;20377;-73
2022/08/01 02:12:25;;;;;;;3.30;3.00;;;;;;;;;;4980116;28;20077;-74
2022/08/01 02:14:53;;;;;;;3.47;3.17;;;;;;;;;;4979882;28;20401;-73
2022/08/01 02:17:19;;;;;;;4.05;3.65;;;;;;;;;;4978738;28;20030;-73
2022/08/01 02:19:45;;;;;;;4.63;3.67;;;;;;;;;;4978157;28;20338;-73
2022/08/01 02:22:20;;;;;;;3.67;3.38;;;;;;;;;;4976110;28;20447;-73
2022/08/01 02:24:48;;;;;;;4.45;3.47;;;;;;;;;;4991929;28;20520;-73
2022/08/01 02:27:24;;;;;;;5.57;3.58;;;;;;;;;;4976941;28;20042;-74
2022/08/01 02:29:58;;;;;;;3.97;3.67;;;;;;;;;;4979174;28;20493;-74
2022/08/01 02:32:25;;;;;;;2.80;2.60;;;;;;;;;;4979548;28;20033;-74
2022/08/01 02:34:52;;;;;;;5.35;2.90;;;;;;;;;;4975851;28;20023;-73
2022/08/01 02:37:18;;;;;;;4.07;2.88;;;;;;;;;;4977881;28;20442;-73
2022/08/01 02:39:46;;;;;;;3.50;2.92;;;;;;;;;;4976674;28;20061;-73
2022/08/01 02:42:13;;;;;;;5.00;3.47;;;;;;;;;;4972510;28;20360;-72
2022/08/01 02:44:41;;;;;;;5.28;4.00;;;;;;;;;;4976412;28;20038;-73
2022/08/01 02:47:07;;;;;;;4.28;3.20;;;;;;;;;;4979250;28;20041;-74
2022/08/01 02:49:43;;;;;;;3.53;3.22;;;;;;;;;;4972527;28;20398;-73
2022/08/01 02:52:11;;;;;;;3.63;3.30;;;;;;;;;;4969380;28;20038;-73
2022/08/01 02:54:38;;;;;;;3.45;3.20;;;;;;;;;;4979024;28;20034;-73
2022/08/01 02:57:05;;;;;;;3.55;3.15;;;;;;;;;;4975255;28;20116;-73
2022/08/01 02:59:31;;;;;;;3.75;2.92;;;;;;;;;;4975248;28;20083;-73
2022/08/01 03:01:57;;;;;;;3.47;3.17;;;;;;;;;;4966431;28;20437;-72
2022/08/01 03:04:23;;;;;;;3.55;3.25;;;;;;;;;;4973712;28;20027;-73
2022/08/01 03:06:49;;;;;;;5.75;2.95;;;;;;;;;;4975203;28;20038;-73
2022/08/01 03:09:14;;;;;;;7.40;3.47;;;;;;;;;;4977440;28;20026;-74
2022/08/01 03:11:41;;;;;;;3.50;3.20;;;;;;;;;;4972282;28;20022;-74
2022/08/01 03:14:07;;;;;;;2.83;2.63;;;;;;;;;;4972231;28;20382;-73
2022/08/01 03:16:35;;;;;;;3.28;2.80;;;;;;;;;;4977420;28;20077;-73
2022/08/01 03:19:01;;;;;;;3.38;3.08;;;;;;;;;;4979082;28;20374;-73
2022/08/01 03:21:27;;;;;;;2.95;2.65;;;;;;;;;;4972386;28;20038;-74
2022/08/01 03:23:56;;;;;;;3.25;2.67;;;;;;;;;;4976101;28;20030;-74
2022/08/01 03:26:23;;;;;;;3.88;2.80;;;;;;;;;;4975094;28;20026;-75
2022/08/01 03:28:50;;;;;;;4.13;2.70;;;;;;;;;;4975758;28;20465;-75
2022/08/01 03:31:16;;;;;;;3.95;3.05;;;;;;;;;;4978586;28;20056;-74
2022/08/01 03:33:42;;;;;;;3.92;3.35;;;;;;;;;;4974955;28;20058;-74
2022/08/01 03:36:09;;;;;;;3.70;3.40;;;;;;;;;;4971642;28;20095;-74
2022/08/01 03:38:36;;;;;;;6.72;3.92;;;;;;;;;;4969845;28;20342;-73
2022/08/01 03:41:27;;;;;;;4.20;3.45;;;;;;;;;;4977098;28;20045;-73
2022/08/01 03:43:58;;;;;;;4.43;4.03;;;;;;;;;;4970429;28;20443;-73
2022/08/01 03:46:28;;;;;;;6.07;5.35;;;;;;;;;;4978525;28;20026;-73
2022/08/01 03:48:55;;;;;;;4.78;4.30;;;;;;;;;;4977915;28;20038;-73
2022/08/01 03:51:21;;;;;;;16.25;14.60;;;;;;;;;;4976213;28;20030;-74
2022/08/01 03:53:47;;;;;;;10.88;9.70;;;;;;;;;;4974051;28;20033;-74
2022/08/01 03:56:13;;;;;;;10.00;9.10;;;;;;;;;;4974464;28;20042;-74
2022/08/01 03:58:40;;;;;;;5.65;5.10;;;;;;;;;;4971053;28;20026;-74
2022/08/01 04:01:05;;;;;;;6.28;4.53;;;;;;;;;;4971735;28;20484;-74
2022/08/01 04:03:32;;;;;;;4.03;3.55;;;;;;;;;;4963123;28;20030;-74
2022/08/01 04:05:57;;;;;;;4.05;3.65;;;;;;;;;;4961177;28;20030;-75
2022/08/01 04:08:22;;;;;;;3.17;2.88;;;;;;;;;;4961759;28;20026;-75
2022/08/01 04:10:48;;;;;;;6.70;3.22;;;;;;;;;;4958630;28;20031;-75
2022/08/01 04:13:13;;;;;;;2.95;2.70;;;;;;;;;;4964602;28;20516;-74
2022/08/01 04:15:39;;;;;;;4.25;2.85;;;;;;;;;;4962103;28;20079;-74
2022/08/01 04:18:06;;;;;;;5.03;3.95;;;;;;;;;;4966119;28;20426;-74
2022/08/01 04:20:31;;;;;;;6.00;4.53;;;;;;;;;;4970711;28;20034;-74
2022/08/01 04:22:57;;;;;;;6.55;5.95;;;;;;;;;;4979513;28;20350;-72
2022/08/01 04:25:27;;;;;;;5.20;4.65;;;;;;;;;;4980428;28;20034;-75
2022/08/01 04:27:54;;;;;;;6.40;5.07;;;;;;;;;;4980720;28;20038;-75
2022/08/01 04:30:24;;;;;;;6.38;5.80;;;;;;;;;;4980274;28;20018;-75
2022/08/01 04:32:51;;;;;;;8.85;7.35;;;;;;;;;;4981216;28;20079;-75
2022/08/01 04:35:18;;;;;;;13.50;10.35;;;;;;;;;;4979591;28;20033;-75
2022/08/01 04:37:45;;;;;;;10.48;9.40;;;;;;;;;;4977527;28;20026;-74
2022/08/01 04:40:11;;;;;;;9.98;6.97;;;;;;;;;;4974197;28;20058;-74
2022/08/01 04:42:37;;;;;;;6.88;5.93;;;;;;;;;;4977314;28;20045;-74
2022/08/01 04:45:02;;;;;;;6.85;4.90;;;;;;;;;;4978538;28;20429;-73
2022/08/01 04:47:29;;;;;;;7.43;5.43;;;;;;;;;;4976593;28;20022;-77
2022/08/01 04:49:56;;;;;;;6.32;5.15;;;;;;;;;;4978894;28;20027;-75
2022/08/01 04:52:21;;;;;;;6.30;4.32;;;;;;;;;;4970866;28;20034;-75
2022/08/01 04:54:47;;;;;;;5.25;4.75;;;;;;;;;;4970402;28;20073;-74
2022/08/01 04:57:12;;;;;;;7.43;4.72;;;;;;;;;;4971219;28;20942;-74
2022/08/01 04:59:42;;;;;;;5.78;3.80;;;;;;;;;;4970879;28;20037;-73
2022/08/01 05:02:08;;;;;;;5.30;3.90;;;;;;;;;;4970884;28;20513;-72
2022/08/01 05:04:34;;;;;;;5.88;4.25;;;;;;;;;;4975713;28;20121;-73
2022/08/01 05:06:59;;;;;;;4.60;4.22;;;;;;;;;;4978204;28;20125;-73
2022/08/01 05:09:25;;;;;;;4.22;3.80;;;;;;;;;;4977510;28;20034;-76
2022/08/01 05:11:50;;;;;;;3.78;3.45;;;;;;;;;;4974971;28;20101;-78
2022/08/01 05:14:15;;;;;;;3.35;3.05;;;;;;;;;;4980109;28;20069;-77
2022/08/01 05:16:41;;;;;;;3.20;2.90;;;;;;;;;;4981242;28;20030;-75
2022/08/01 05:19:07;;;;;;;4.93;3.50;;;;;;;;;;4980898;28;20026;-74
2022/08/01 05:21:33;;;;;;;6.00;2.80;;;;;;;;;;4977603;28;20398;-74
2022/08/01 05:23:58;;;;;;;4.68;3.13;;;;;;;;;;4977729;28;20058;-74
2022/08/01 05:26:24;;;;;;;3.38;2.58;;;;;;;;;;4977516;28;20483;-75
2022/08/01 05:28:49;;;;;;;3.75;2.53;;;;;;;;;;4978880;28;20529;-72
2022/08/01 05:31:14;;;;;;;5.28;2.80;;;;;;;;;;4975879;28;20050;-73
2022/08/01 05:33:40;;;;;;;3.33;2.83;;;;;;;;;;4976896;28;20129;-72
2022/08/01 05:36:05;;;;;;;3.28;2.88;;;;;;;;;;4969863;28;20065;-73
2022/08/01 05:38:30;;;;;;;3.47;2.30;;;;;;;;;;4969123;28;20077;-72
2022/08/01 05:40:56;;;;;;;3.17;2.42;;;;;;;;;;4970441;28;20050;-72
2022/08/01 05:43:21;;;;;;;3.58;2.50;;;;;;;;;;4969947;28;20089;-75
2022/08/01 05:45:47;;;;;;;3.50;2.60;;;;;;;;;;4966583;28;20034;-71
2022/08/01 05:48:12;;;;;;;3.53;2.58;;;;;;;;;;4968692;28;20153;-75
2022/08/01 05:50:37;;;;;;;2.60;2.40;;;;;;;;;;4968885;28;20076;-74
2022/08/01 05:53:03;;;;;;;2.78;2.50;;;;;;;;;;4969551;28;20027;-71
2022/08/01 05:55:28;;;;;;;3.47;2.65;;;;;;;;;;4975067;28;20429;-75
2022/08/01 05:57:54;;;;;;;4.03;2.75;;;;;;;;;;4982022;28;20030;-73
2022/08/01 06:00:19;;;;;;;5.07;2.55;;;;;;;;;;4979401;28;20019;-72
2022/08/01 06:02:44;;;;;;;4.15;2.72;;;;;;;;;;4980662;28;20037;-74
2022/08/01 06:05:10;;;;;;;5.85;2.15;;;;;;;;;;4979087;28;20832;-72
2022/08/01 06:07:36;;;;;;;2.97;2.60;;;;;;;;;;4980731;28;20026;-73
2022/08/01 06:10:01;;;;;;;2.58;2.38;;;;;;;;;;4979065;28;20331;-73
2022/08/01 06:12:26;;;;;;;20.95;3.60;;;;;;;;;;4979993;28;20030;-73
2022/08/01 06:14:52;;;;;;;3.17;2.88;;;;;;;;;;4979187;28;20037;-75
2022/08/01 06:17:17;;;;;;;2.72;2.38;;;;;;;;;;4993761;28;20030;-73
2022/08/01 06:19:42;;;;;;;2.78;2.55;;;;;;;;;;4980742;28;20042;-71
2022/08/01 06:22:08;;;;;;;3.22;2.90;;;;;;;;;;4978370;28;20030;-74
2022/08/01 06:24:33;;;;;;;4.20;2.55;;;;;;;;;;4980354;28;20390;-75
2022/08/01 06:26:58;;;;;;;3.55;2.92;;;;;;;;;;4978343;28;20116;-74
2022/08/01 06:29:24;;;;;;;3.25;2.95;;;;;;;;;;4977264;28;20077;-75
2022/08/01 06:31:49;;;;;;;6.50;2.80;;;;;;;;;;4981936;28;20022;-75
2022/08/01 06:34:15;;;;;;;2.97;2.67;;;;;;;;;;4981445;28;20035;-74
2022/08/01 06:36:40;;;;;;;3.53;2.50;;;;;;;;;;4980003;28;20050;-76
2022/08/01 06:39:05;;;;;;;3.58;2.70;;;;;;;;;;4980405;28;20022;-76
2022/08/01 06:41:31;;;;;;;2.55;2.30;;;;;;;;;;4978310;28;20058;-76
2022/08/01 06:43:56;;;;;;;3.85;2.63;;;;;;;;;;4979631;28;20033;-75
2022/08/01 06:46:21;;;;;;;3.90;2.28;;;;;;;;;;4979832;28;20038;-77
2022/08/01 06:48:47;;;;;;;7.40;2.40;;;;;;;;;;4978584;28;20022;-75
2022/08/01 06:51:16;;;;;;;4.10;2.03;;;;;;;;;;4980794;28;20083;-75
2022/08/01 06:53:42;;;;;;;5.18;2.30;;;;;;;;;;4979448;28;20685;-76
2022/08/01 06:56:08;;;;;;;3.47;2.20;;;;;;;;;;4977871;28;20033;-76
2022/08/01 06:58:34;;;;;;;4.72;2.17;;;;;;;;;;4977122;28;20030;-75
2022/08/01 07:01:00;;;;;;;3.03;1.95;;;;;;;;;;4970751;28;20598;-76
2022/08/01 07:03:25;;;;;;;2.90;2.22;;;;;;;;;;4969217;28;20105;-76
2022/08/01 07:05:51;;;;;;;3.05;1.70;;;;;;;;;;4975091;28;20084;-76
2022/08/01 07:08:16;;;;;;;2.63;1.73;;;;;;;;;;4980109;28;20030;-74
2022/08/01 07:10:43;;;;;;;2.00;1.90;;;;;;;;;;4979957;28;20346;-76
2022/08/01 07:13:08;;;;;;;2.10;1.67;;;;;;;;;;4980739;28;20037;-75
2022/08/01 07:15:33;;;;;;;2.50;2.30;;;;;;;;;;4977368;28;20038;-75
2022/08/01 07:18:01;;;;;;;4.28;2.00;;;;;;;;;;4979263;28;20072;-74
2022/08/01 07:20:26;;;;;;;2.58;1.88;;;;;;;;;;4976233;28;21029;-76
2022/08/01 07:22:52;;;;;;;3.42;2.20;;;;;;;;;;4977496;28;20026;-75
2022/08/01 07:25:17;;;;;;;1.67;1.58;;;;;;;;;;4979508;28;20084;-75
2022/08/01 07:27:43;;;;;;;1.90;1.70;;;;;;;;;;4974217;28;20030;-78
2022/08/01 07:30:08;;;;;;;3.10;1.80;;;;;;;;;;4979039;28;20037;-75
2022/08/01 07:32:34;;;;;;;2.10;1.90;;;;;;;;;;4979057;28;20076;-78
2022/08/01 07:35:00;;;;;;;1.67;1.58;;;;;;;;;;4978668;28;20060;-74
2022/08/01 07:37:25;;;;;;;3.58;1.83;;;;;;;;;;4980713;28;20068;-75
2022/08/01 07:39:51;;;;;;;1.70;1.60;;;;;;;;;;4977901;28;20413;-77
2022/08/01 07:42:16;;;;;;;1.98;1.65;;;;;;;;;;4978172;28;20043;-80
2022/08/01 07:44:41;;;;;;;4.85;2.08;;;;;;;;;;4978369;28;20454;-74
2022/08/01 07:47:07;;;;;;;5.07;2.30;;;;;;;;;;4979553;28;20022;-74
2022/08/01 07:49:32;;;;;;;1.83;1.73;;;;;;;;;;4978289;28;20481;-76
2022/08/01 07:51:58;;;;;;;2.50;2.05;;;;;;;;;;4977595;28;20109;-74
2022/08/01 07:54:27;;;;;;;1.95;1.77;;;;;;;;;;4967757;28;20038;-74
2022/08/01 07:56:53;;;;;;;2.40;2.30;;;;;;;;;;4970408;28;20465;-72
2022/08/01 07:59:22;;;;;;;4.07;2.20;;;;;;;;;;4969631;28;20037;-72
2022/08/01 08:01:48;;;;;;;2.35;2.15;;;;;;;;;;4972445;28;21608;-73
2022/08/01 08:04:14;;;;;;;3.70;2.28;;;;;;;;;;4976640;28;20033;-76
2022/08/01 08:06:41;;;;;;;2.38;2.00;;;;;;;;;;4977521;28;20049;-74
2022/08/01 08:09:06;;;;;;;2.75;2.22;;;;;;;;;;4981694;28;20125;-75
2022/08/01 08:11:32;;;;;;;3.78;1.90;;;;;;;;;;4981718;28;20172;-74
2022/08/01 08:13:57;;;;;;;2.53;1.80;;;;;;;;;;4982300;28;20493;-75
2022/08/01 08:16:22;;;;;;;2.10;1.90;;;;;;;;;;4971718;28;20038;-75
2022/08/01 08:18:48;;;;;;;3.08;2.08;;;;;;;;;;4969567;28;20030;-76
2022/08/01 08:21:13;;;;;;;7.68;2.03;;;;;;;;;;4967466;28;20033;-75
2022/08/01 08:26:24;;;;;;;2.30;2.10;;;;;;;;;;4973892;28;20084;-72
2022/08/01 08:28:49;;;;;;;2.53;2.33;;;;;;;;;;4973326;28;20457;-73
2022/08/01 08:31:15;;;;;;;2.78;2.03;;;;;;;;;;4977154;28;20023;-76
2022/08/01 08:33:40;;;;;;;2.30;2.10;;;;;;;;;;4981183;28;20022;-75
2022/08/01 08:36:05;;;;;;;2.45;2.20;;;;;;;;;;4972689;28;20062;-75
2022/08/01 08:38:31;;;;;;;3.15;2.05;;;;;;;;;;4970545;28;20073;-76
2022/08/01 08:40:56;;;;;;;2.00;1.65;;;;;;;;;;4977215;28;20059;-77
2022/08/01 08:43:24;;;;;;;3.50;2.47;;;;;;;;;;4976067;28;20039;-76
2022/08/01 08:45:50;;;;;;;2.97;2.17;;;;;;;;;;4968967;28;20030;-76
2022/08/01 08:48:16;;;;;;;2.22;1.85;;;;;;;;;;4977585;28;20022;-75
2022/08/01 08:50:42;;;;;;;2.40;2.10;;;;;;;;;;4982834;28;20117;-77
2022/08/01 08:53:09;;;;;;;3.25;2.08;;;;;;;;;;4980919;28;20018;-71
2022/08/01 08:55:35;;;;;;;2.78;2.22;;;;;;;;;;4979298;28;20037;-74
2022/08/01 08:58:05;;;;;;;2.30;2.10;;;;;;;;;;4980401;28;20442;-73
2022/08/01 09:00:31;;;;;;;2.35;2.13;;;;;;;;;;4980697;28;20037;-75
2022/08/01 09:02:56;;;;;;;2.45;2.25;;;;;;;;;;4981063;28;20022;-75
2022/08/01 09:05:25;;;;;;;2.67;2.00;;;;;;;;;;4977750;28;20018;-75
2022/08/01 09:07:51;;;;;;;2.20;2.00;;;;;;;;;;4977527;28;20405;-75
2022/08/01 09:10:16;;;;;;;2.08;1.90;;;;;;;;;;4979633;28;20034;-74
2022/08/01 09:13:01;;;;;;;2.17;2.08;;;;;;;;;;4979747;28;20034;-75
2022/08/01 09:15:39;;;;;;;2.33;2.13;;;;;;;;;;4981542;28;20041;-74
2022/08/01 09:18:06;;;;;;;4.05;2.60;;;;;;;;;;4979243;28;20500;-74
2022/08/01 09:20:31;;;;;;;2.22;2.13;;;;;;;;;;4973866;28;20037;-75
2022/08/01 09:22:57;;;;;;;3.15;1.67;;;;;;;;;;4970497;28;20030;-75
2022/08/01 09:25:22;;;;;;;1.95;1.85;;;;;;;;;;4976834;28;20040;-74
2022/08/01 09:27:47;;;;;;;2.03;1.83;;;;;;;;;;4981800;28;20104;-75
2022/08/01 09:30:13;;;;;;;1.77;1.67;;;;;;;;;;4977636;28;20026;-75
2022/08/01 09:32:57;;;;;;;2.78;1.73;;;;;;;;;;4977723;28;20113;-75
2022/08/01 09:35:23;;;;;;;2.03;1.83;;;;;;;;;;4976933;28;20443;-76
2022/08/01 09:37:49;;;;;;;2.55;1.75;;;;;;;;;;4980920;28;20025;-75
2022/08/01 09:40:14;;;;;;;2.28;1.60;;;;;;;;;;4978686;28;20049;-74
2022/08/01 09:42:39;;;;;;;2.75;1.60;;;;;;;;;;4982305;28;20081;-75
2022/08/01 09:45:05;;;;;;;3.13;2.75;;;;;;;;;;4980966;28;20343;-75
2022/08/01 09:47:39;;;;;;;2.85;2.42;;;;;;;;;;4978688;28;20031;-75
2022/08/01 09:50:05;;;;;;;2.08;1.65;;;;;;;;;;4978019;28;20040;-77
2022/08/01 09:52:30;;;;;;;1.77;1.67;;;;;;;;;;4980024;28;20034;-77
2022/08/01 09:54:57;;;;;;;1.73;1.58;;;;;;;;;;4981369;28;20026;-73
2022/08/01 09:57:23;;;;;;;2.95;1.70;;;;;;;;;;4979894;28;20038;-73
2022/08/01 09:59:50;;;;;;;1.80;1.70;;;;;;;;;;4980915;28;20034;-74
2022/08/01 10:02:27;;;;;;;2.28;1.50;;;;;;;;;;4974767;28;20022;-71
2022/08/01 10:04:53;;;;;;;1.83;1.70;;;;;;;;;;4973105;28;20469;-71
2022/08/01 10:07:19;;;;;;;2.92;1.80;;;;;;;;;;4969330;28;20027;-72
2022/08/01 10:09:44;;;;;;;1.58;1.48;;;;;;;;;;4967870;28;20357;-74
2022/08/01 10:12:11;;;;;;;2.00;1.40;;;;;;;;;;4969689;28;20034;-72
2022/08/01 10:14:37;;;;;;;1.50;1.40;;;;;;;;;;4971048;28;20449;-71
2022/08/01 10:17:03;;;;;;;1.20;1.10;;;;;;;;;;4968248;28;20346;-74
2022/08/01 10:19:29;;;;;;;2.78;0.90;;;;;;;;;;4972760;28;20025;-72
2022/08/01 10:21:56;;;;;;;1.42;1.25;;;;;;;;;;4976176;28;20069;-72
2022/08/01 10:24:22;;;;;;;1.40;1.10;;;;;;;;;;4977025;28;20018;-72
2022/08/01 10:26:47;;;;;;;1.63;1.42;;;;;;;;;;4971120;28;20038;-73
2022/08/01 10:29:17;;;;;;;1.85;1.35;;;;;;;;;;4973788;28;20084;-74
2022/08/01 10:31:43;;;;;;;1.50;1.40;;;;;;;;;;4978153;28;20099;-77
2022/08/01 10:34:09;;;;;;;1.92;1.23;;;;;;;;;;4976281;28;20113;-78
2022/08/01 10:36:38;;;;;;;1.35;1.23;;;;;;;;;;4977436;28;20430;-76
2022/08/01 10:39:05;;;;;;;1.73;1.30;;;;;;;;;;4979654;28;20409;-75
2022/08/01 10:41:31;;;;;;;1.13;1.13;;;;;;;;;;4978612;28;20049;-77
2022/08/01 10:43:57;;;;;;;2.20;1.60;;;;;;;;;;4978422;28;20117;-76
2022/08/01 10:46:22;;;;;;;1.60;1.50;;;;;;;;;;4978617;28;20110;-76
2022/08/01 10:48:56;;;;;;;1.60;1.50;;;;;;;;;;4980090;28;20054;-76
2022/08/01 10:51:22;;;;;;;1.67;1.38;;;;;;;;;;4974107;28;20441;-78
2022/08/01 10:53:51;;;;;;;4.03;1.73;;;;;;;;;;4969250;28;20434;-80
2022/08/01 10:56:17;;;;;;;1.10;1.10;;;;;;;;;;4971690;28;20033;-79
2022/08/01 10:58:43;;;;;;;1.58;1.48;;;;;;;;;;4980689;28;20022;-80
2022/08/01 11:01:15;;;;;;;1.60;1.30;;;;;;;;;;4969796;28;20030;-75
2022/08/01 11:03:42;;;;;;;1.42;1.33;;;;;;;;;;4983463;28;20113;-75
2022/08/01 11:06:15;;;;;;;1.30;1.20;;;;;;;;;;4985763;28;20034;-78
2022/08/01 11:08:42;;;;;;;1.70;1.60;;;;;;;;;;4982903;28;20144;-78
2022/08/01 11:11:07;;;;;;;1.63;1.30;;;;;;;;;;4986917;28;20486;-74
2022/08/01 11:13:51;;;;;;;2.47;1.27;;;;;;;;;;4987450;28;20050;-76
2022/08/01 11:16:27;;;;;;;1.20;1.20;;;;;;;;;;4992746;28;20042;-76
2022/08/01 11:18:53;;;;;;;1.92;1.58;;;;;;;;;;4983434;28;20029;-77
2022/08/01 11:21:19;;;;;;;1.30;1.20;;;;;;;;;;4984327;28;20030;-75
2022/08/01 11:23:48;;;;;;;1.48;1.38;;;;;;;;;;4987202;28;20040;-76
2022/08/01 11:26:14;;;;;;;1.50;1.02;;;;;;;;;;4983962;28;20030;-74
2022/08/01 11:28:40;;;;;;;1.58;1.33;;;;;;;;;;4987411;28;20022;-75
2022/08/01 11:31:08;;;;;;;1.17;1.00;;;;;;;;;;4986437;28;20053;-76
2022/08/01 11:33:39;;;;;;;1.47;1.37;;;;;;;;;;4987231;28;20443;-76
2022/08/01 11:36:10;;;;;;;1.40;1.30;;;;;;;;;;4992401;28;20284;-76
2022/08/01 11:38:56;;;;;;;1.25;1.15;;;;;;;;;;4981430;28;20062;-77
2022/08/01 11:41:23;;;;;;;1.30;1.20;;;;;;;;;;4978914;28;20127;-77
2022/08/01 11:44:06;;;;;;;2.45;1.42;;;;;;;;;;4990431;28;20022;-79
2022/08/01 11:46:47;;;;;;;5.15;3.72;;;;;;;;;;4989228;28;20034;-77
2022/08/01 11:49:25;;;;;;;1.40;1.30;;;;;;;;;;4986639;28;20415;-78
2022/08/01 11:52:01;;;;;;;1.67;1.10;;;;;;;;;;4987002;28;20360;-78
2022/08/01 11:54:28;;;;;;;1.17;1.02;;;;;;;;;;4987922;28;20026;-76
2022/08/01 11:56:54;;;;;;;2.35;1.02;;;;;;;;;;4990185;28;20034;-82
2022/08/01 11:59:21;;;;;;;1.00;1.00;;;;;;;;;;4986672;28;20026;-75
2022/08/01 12:01:46;;;;;;;2.03;1.45;;;;;;;;;;4980227;28;20701;-75
2022/08/01 12:04:11;;;;;;;0.95;0.95;;;;;;;;;;4981397;28;20081;-77
2022/08/01 12:06:37;;;;;;;2.17;0.82;;;;;;;;;;4981555;28;20030;-76
2022/08/01 12:09:21;;;;;;;1.00;0.90;;;;;;;;;;4982631;28;20338;-80
2022/08/01 12:11:47;;;;;;;2.10;1.90;;;;;;;;;;4971092;28;20038;-78
2022/08/01 12:14:17;;;;;;;1.50;1.40;;;;;;;;;;4981680;28;20026;-77
2022/08/01 12:16:53;;;;;;;0.90;0.90;;;;;;;;;;4982080;28;20405;-78
2022/08/01 12:19:21;;;;;;;0.93;0.93;;;;;;;;;;4977609;28;20084;-77
2022/08/01 12:22:06;;;;;;;0.80;0.80;;;;;;;;;;4982697;28;20366;-77
2022/08/01 12:24:32;;;;;;;9.27;8.38;;;;;;;;;;4981723;28;20034;-78
2022/08/01 12:26:58;;;;;;;9.98;7.85;;;;;;;;;;4982539;28;20026;-77
2022/08/01 12:29:40;;;;;;;1.60;1.50;;;;;;;;;;4979883;28;20034;-78
2022/08/01 12:32:22;;;;;;;1.33;1.23;;;;;;;;;;4981226;28;20023;-77
2022/08/01 12:34:48;;;;;;;0.85;0.85;;;;;;;;;;4981902;28;20022;-77
2022/08/01 12:37:14;;;;;;;0.88;0.82;;;;;;;;;;4982146;28;20053;-79
2022/08/01 12:39:39;;;;;;;1.85;0.80;;;;;;;;;;4982724;28;20065;-76
2022/08/01 12:42:10;;;;;;;0.85;0.82;;;;;;;;;;4984614;28;20462;-80
2022/08/01 12:44:35;;;;;;;0.60;0.60;;;;;;;;;;4983331;28;20338;-77
2022/08/01 12:47:01;;;;;;;0.73;0.73;;;;;;;;;;4970479;28;20544;-78
2022/08/01 12:49:27;;;;;;;2.00;1.80;;;;;;;;;;4971526;28;20533;-81
2022/08/01 12:51:53;;;;;;;1.40;1.30;;;;;;;;;;4970723;28;20026;-79
2022/08/01 12:54:18;;;;;;;4.03;3.28;;;;;;;;;;4972079;28;20054;-81
2022/08/01 12:56:45;;;;;;;3.17;1.65;;;;;;;;;;4969737;28;20066;-79
2022/08/01 12:59:40;;;;;;;5.05;3.70;;;;;;;;;;4970702;28;20134;-80
2022/08/01 13:02:08;;;;;;;4.15;2.88;;;;;;;;;;4909573;29;20063;-79
2022/08/01 13:04:48;;;;;;;18.63;11.65;;;;;;;;;;4911657;29;20024;-76
2022/08/01 13:07:13;;;;;;;4.03;2.67;;;;;;;;;;4924439;29;20135;-76
2022/08/01 13:09:48;;;;;;;1.60;1.50;;;;;;;;;;4924647;29;20139;-77
2022/08/01 13:12:13;;;;;;;2.95;2.63;;;;;;;;;;4924914;29;20036;-76
2022/08/01 13:14:39;;;;;;;5.38;4.88;;;;;;;;;;4922950;29;20024;-77
2022/08/01 13:17:04;;;;;;;1.25;1.15;;;;;;;;;;4911966;29;20039;-77
2022/08/01 13:19:46;;;;;;;1.65;1.50;;;;;;;;;;4921746;29;20048;-77
2022/08/01 13:22:12;;;;;;;1.65;1.10;;;;;;;;;;4923401;29;20101;-78
2022/08/01 13:24:37;;;;;;;2.63;1.20;;;;;;;;;;4922508;29;20043;-76
2022/08/01 13:27:03;;;;;;;1.67;1.02;;;;;;;;;;4908168;29;20036;-77
2022/08/01 13:29:37;;;;;;;2.75;2.55;;;;;;;;;;4909188;29;20098;-78
2022/08/01 13:32:16;;;;;;;4.80;3.30;;;;;;;;;;4909229;29;20075;-78
2022/08/01 13:34:41;;;;;;;4.03;3.65;;;;;;;;;;4919290;29;20036;-78
2022/08/01 13:37:07;;;;;;;8.88;7.07;;;;;;;;;;4911254;29;20110;-80
2022/08/01 13:39:43;;;;;;;5.40;2.85;;;;;;;;;;4963567;28;20065;-81
2022/08/01 13:42:12;;;;;;;2.10;1.60;;;;;;;;;;4971394;28;20037;-78
2022/08/01 13:44:38;;;;;;;1.23;1.10;;;;;;;;;;4968701;28;20057;-75
2022/08/01 13:47:04;;;;;;;3.83;2.22;;;;;;;;;;4969038;28;20054;-75
2022/08/01 13:49:30;;;;;;;3.28;1.42;;;;;;;;;;4970371;28;20093;-77
2022/08/01 13:51:55;;;;;;;2.35;1.73;;;;;;;;;;4964790;28;20022;-75
2022/08/01 13:54:20;;;;;;;1.90;1.40;;;;;;;;;;4970480;28;20093;-81
2022/08/01 13:56:45;;;;;;;1.50;1.20;;;;;;;;;;4978224;28;20038;-80
2022/08/01 13:59:11;;;;;;;1.13;1.05;;;;;;;;;;4983750;28;20034;-78
2022/08/01 14:01:37;;;;;;;1.33;1.23;;;;;;;;;;4979978;28;20117;-77
2022/08/01 14:04:04;;;;;;;1.60;1.10;;;;;;;;;;4969517;28;20038;-76
2022/08/01 14:06:29;;;;;;;1.63;1.05;;;;;;;;;;4968604;28;20788;-77
2022/08/01 14:08:55;;;;;;;4.93;1.75;;;;;;;;;;4971202;28;20032;-77
2022/08/01 14:11:20;;;;;;;1.23;1.15;;;;;;;;;;4968588;28;20018;-78
2022/08/01 14:13:46;;;;;;;2.20;1.20;;;;;;;;;;4969973;28;20056;-77
2022/08/01 14:16:11;;;;;;;3.25;1.17;;;;;;;;;;4968913;28;20045;-77
2022/08/01 14:18:36;;;;;;;1.33;1.23;;;;;;;;;;4968342;28;20037;-75
2022/08/01 14:21:02;;;;;;;1.20;1.10;;;;;;;;;;4968906;28;20034;-78
2022/08/01 14:23:28;;;;;;;1.10;1.00;;;;;;;;;;4968806;28;20041;-76
2022/08/01 14:25:53;;;;;;;1.55;1.38;;;;;;;;;;4969525;28;20030;-74
2022/08/01 14:28:18;;;;;;;1.88;1.20;;;;;;;;;;4966818;28;20054;-74
2022/08/01 14:30:44;;;;;;;1.67;1.30;;;;;;;;;;4967571;28;20022;-76
2022/08/01 14:33:10;;;;;;;1.20;1.10;;;;;;;;;;4969409;28;20033;-76
2022/08/01 14:35:35;;;;;;;1.17;1.17;;;;;;;;;;4969431;28;20030;-80
2022/08/01 14:38:01;;;;;;;1.33;1.13;;;;;;;;;;4982357;28;20026;-76
2022/08/01 14:40:26;;;;;;;1.13;1.02;;;;;;;;;;4969610;28;20057;-75
2022/08/01 14:42:52;;;;;;;1.70;1.35;;;;;;;;;;4979800;28;20125;-76
2022/08/01 14:45:17;;;;;;;1.38;1.27;;;;;;;;;;4982671;28;20115;-75
2022/08/01 14:47:43;;;;;;;1.20;1.10;;;;;;;;;;4980591;28;20078;-75